Time;durP1;ratioP1;P1;durP2;ratioP2;P2;SDS_P1;SDS_P2;PMS_P1;PMS_P2;Temp;Humidity;BMP_temperature;BMP_pressure;BME280_temperature;BME280_humidity;BME280_pressure;Samples;Min_cycle;Max_cycle;Signal;HPM_P1;HPM_P2
2021/12/12 00:00:29;;;;;;;11.82;3.28;;;4.70;99.90;;;;;;4995584;28;20019;-53
2021/12/12 00:02:58;;;;;;;9.65;3.65;;;4.60;99.90;;;;;;4995735;28;20023;-53
2021/12/12 00:05:33;;;;;;;15.50;3.80;;;4.50;99.90;;;;;;4994370;28;20080;-53
2021/12/12 00:07:59;;;;;;;9.10;3.70;;;4.50;99.90;;;;;;4995768;28;20022;-54
2021/12/12 00:10:30;;;;;;;9.38;4.22;;;4.50;99.90;;;;;;4995480;28;20037;-51
2021/12/12 00:13:01;;;;;;;14.80;4.15;;;4.40;99.90;;;;;;4994138;28;20080;-54
2021/12/12 00:15:27;;;;;;;11.85;4.55;;;4.30;99.90;;;;;;4995335;28;20026;-50
2021/12/12 00:17:53;;;;;;;10.38;4.00;;;4.10;99.90;;;;;;4995290;28;20037;-51
2021/12/12 00:20:22;;;;;;;12.93;4.85;;;4.00;99.90;;;;;;4995213;28;20109;-55
2021/12/12 00:22:48;;;;;;;19.88;5.07;;;3.90;99.90;;;;;;4995267;28;20024;-52
2021/12/12 00:25:15;;;;;;;13.80;5.53;;;3.80;99.90;;;;;;4994219;28;20062;-55
2021/12/12 00:27:41;;;;;;;15.63;4.72;;;3.80;99.90;;;;;;4995200;28;20030;-54
2021/12/12 00:30:09;;;;;;;7.70;3.95;;;3.70;99.90;;;;;;4995103;28;20037;-51
2021/12/12 00:32:37;;;;;;;10.45;3.95;;;3.60;99.90;;;;;;4993877;28;20057;-53
2021/12/12 00:35:07;;;;;;;14.13;4.55;;;3.60;99.90;;;;;;4993744;28;20036;-54
2021/12/12 00:37:32;;;;;;;8.57;3.75;;;3.60;99.90;;;;;;4993570;28;20030;-51
2021/12/12 00:40:16;;;;;;;7.65;3.20;;;3.60;99.90;;;;;;4994455;28;20384;-51
2021/12/12 00:42:43;;;;;;;7.90;2.92;;;3.70;99.90;;;;;;4994546;28;20451;-52
2021/12/12 00:45:12;;;;;;;12.68;3.47;;;3.70;99.90;;;;;;4994824;28;20030;-50
2021/12/12 00:47:40;;;;;;;12.00;3.13;;;3.70;99.90;;;;;;4994593;28;20093;-53
2021/12/12 00:50:24;;;;;;;11.45;3.45;;;3.70;99.90;;;;;;4994947;28;20093;-55
2021/12/12 00:52:50;;;;;;;10.32;3.13;;;3.60;99.90;;;;;;4994896;28;20030;-51
2021/12/12 00:55:17;;;;;;;12.23;3.25;;;3.60;99.90;;;;;;4993429;28;20084;-52
2021/12/12 00:57:49;;;;;;;5.32;2.58;;;3.60;99.90;;;;;;4994585;28;20418;-51
2021/12/12 01:00:17;;;;;;;12.18;2.72;;;3.60;99.90;;;;;;4994279;28;20026;-54
2021/12/12 01:02:43;;;;;;;11.50;2.95;;;3.50;99.90;;;;;;4994512;28;20022;-51
2021/12/12 01:05:11;;;;;;;5.00;2.70;;;3.50;99.90;;;;;;4993323;28;20022;-51
2021/12/12 01:07:39;;;;;;;7.90;2.60;;;3.40;99.90;;;;;;4993973;28;20083;-51
2021/12/12 01:10:13;;;;;;;7.72;2.25;;;3.60;99.90;;;;;;4993216;28;20030;-54
2021/12/12 01:12:39;;;;;;;11.10;2.85;;;3.50;99.90;;;;;;4993753;28;20026;-52
2021/12/12 01:15:32;;;;;;;11.85;2.85;;;3.50;99.90;;;;;;4993081;28;20067;-53
2021/12/12 01:18:02;;;;;;;6.25;2.90;;;3.50;99.90;;;;;;4992630;28;20109;-53
2021/12/12 01:20:38;;;;;;;10.35;2.50;;;3.50;99.90;;;;;;4993020;28;20069;-52
2021/12/12 01:23:14;;;;;;;12.30;3.25;;;3.60;99.90;;;;;;4993003;28;20022;-54
2021/12/12 01:25:44;;;;;;;7.53;2.53;;;3.50;99.90;;;;;;4993086;28;20026;-50
2021/12/12 01:28:13;;;;;;;9.05;2.65;;;3.50;99.90;;;;;;4994061;28;20018;-53
2021/12/12 01:30:40;;;;;;;10.27;2.53;;;3.50;99.90;;;;;;4992904;28;20033;-52
2021/12/12 01:33:09;;;;;;;9.93;2.85;;;3.60;99.90;;;;;;4992821;28;20029;-56
2021/12/12 01:35:36;;;;;;;5.28;2.40;;;3.70;99.90;;;;;;4993969;28;20029;-54
2021/12/12 01:40:54;;;;;;;7.20;3.42;;;3.60;99.90;;;;;;4994016;28;20029;-49
2021/12/12 01:43:43;;;;;;;7.43;2.80;;;3.60;99.90;;;;;;4992780;28;20469;-51
2021/12/12 01:46:26;;;;;;;8.15;2.28;;;3.70;99.90;;;;;;4992732;28;20058;-50
2021/12/12 01:48:59;;;;;;;5.30;2.38;;;3.60;99.90;;;;;;4993008;28;20034;-52
2021/12/12 01:51:28;;;;;;;8.30;2.42;;;3.50;99.90;;;;;;4992700;28;20039;-50
2021/12/12 01:53:58;;;;;;;5.47;2.03;;;3.50;99.90;;;;;;4994482;28;20026;-50
2021/12/12 01:56:42;;;;;;;6.00;2.17;;;3.50;99.90;;;;;;4992619;28;20397;-51
2021/12/12 01:59:08;;;;;;;4.50;2.13;;;3.60;99.90;;;;;;4993794;28;20069;-52
2021/12/12 02:01:44;;;;;;;5.30;2.10;;;3.60;99.90;;;;;;4993775;28;20023;-49
2021/12/12 02:04:15;;;;;;;4.10;2.05;;;3.50;99.90;;;;;;4992867;28;20022;-53
2021/12/12 02:06:47;;;;;;;10.83;2.80;;;3.40;99.90;;;;;;4992972;28;20031;-50
2021/12/12 02:09:14;;;;;;;11.00;2.45;;;3.40;99.90;;;;;;4993806;28;20265;-50
2021/12/12 02:11:46;;;;;;;7.53;2.53;;;3.40;99.90;;;;;;4994600;28;20030;-52
2021/12/12 02:14:16;;;;;;;8.85;2.17;;;3.30;99.90;;;;;;4997751;28;20034;-52
2021/12/12 02:16:47;;;;;;;7.55;2.15;;;3.20;99.90;;;;;;4996723;28;20073;-55
2021/12/12 02:19:14;;;;;;;11.15;2.47;;;3.20;99.90;;;;;;4996230;28;20026;-50
2021/12/12 02:22:00;;;;;;;8.45;2.72;;;3.20;99.90;;;;;;4996287;28;20027;-51
2021/12/12 02:35:38;;;;;;;6.00;1.92;;;3.40;99.90;;;;;;4997627;28;20481;-52
2021/12/12 02:38:05;;;;;;;5.28;2.33;;;3.50;99.90;;;;;;4997496;28;20031;-50
2021/12/12 02:40:43;;;;;;;9.02;2.58;;;3.70;99.90;;;;;;4996163;28;20095;-52
2021/12/12 02:43:12;;;;;;;6.20;2.28;;;3.70;99.90;;;;;;4996899;28;20023;-53
2021/12/12 02:45:38;;;;;;;6.25;2.25;;;3.70;99.90;;;;;;4996447;28;20033;-53
2021/12/12 02:48:07;;;;;;;5.82;2.13;;;3.80;99.90;;;;;;4995933;28;20022;-49
2021/12/12 02:50:43;;;;;;;12.48;2.95;;;3.80;99.90;;;;;;4997133;28;20026;-52
2021/12/12 02:53:20;;;;;;;6.70;2.47;;;3.70;99.90;;;;;;4996959;28;20029;-52
2021/12/12 02:55:49;;;;;;;13.55;3.42;;;3.90;99.90;;;;;;4996899;28;20083;-49
2021/12/12 02:58:19;;;;;;;8.95;2.72;;;3.90;99.90;;;;;;4996814;28;20065;-49
2021/12/12 03:00:52;;;;;;;8.10;2.40;;;3.90;99.90;;;;;;4996453;28;20084;-49
2021/12/12 03:03:18;;;;;;;14.05;3.30;;;3.90;99.90;;;;;;4995628;28;20030;-49
2021/12/12 03:05:47;;;;;;;8.88;2.42;;;3.80;99.90;;;;;;4997011;28;20022;-52
2021/12/12 03:08:15;;;;;;;10.85;2.65;;;4.20;99.90;;;;;;4996929;28;20038;-49
2021/12/12 03:10:44;;;;;;;9.88;2.80;;;4.40;99.90;;;;;;4996714;28;20018;-54
2021/12/12 03:13:10;;;;;;;8.15;3.22;;;4.40;99.90;;;;;;4995555;28;20034;-50
2021/12/12 03:15:39;;;;;;;11.35;3.38;;;4.20;99.90;;;;;;4996290;28;20034;-49
2021/12/12 03:18:08;;;;;;;4.25;2.05;;;4.10;99.90;;;;;;4995413;28;20494;-51
2021/12/12 03:20:39;;;;;;;6.50;2.63;;;4.00;99.90;;;;;;4996839;28;20080;-50
2021/12/12 03:23:28;;;;;;;12.23;2.40;;;3.90;99.90;;;;;;4996308;28;20030;-49
2021/12/12 03:26:04;;;;;;;11.43;2.78;;;4.00;99.90;;;;;;4995360;28;20073;-49
2021/12/12 03:28:32;;;;;;;5.30;2.13;;;3.90;99.90;;;;;;4994986;28;20018;-49
2021/12/12 03:31:01;;;;;;;7.53;2.33;;;3.70;99.90;;;;;;4995924;28;20026;-49
2021/12/12 03:33:30;;;;;;;6.10;2.78;;;3.70;99.90;;;;;;4995366;28;20026;-52
2021/12/12 03:35:57;;;;;;;6.10;2.15;;;3.70;99.90;;;;;;4994997;28;20049;-51
2021/12/12 03:38:27;;;;;;;5.18;2.83;;;3.70;99.90;;;;;;4996333;28;20025;-51
2021/12/12 03:40:54;;;;;;;10.85;3.25;;;3.50;99.90;;;;;;4995253;28;20029;-49
2021/12/12 03:43:20;;;;;;;4.60;2.90;;;3.30;99.90;;;;;;4994769;28;20023;-52
2021/12/12 03:45:45;;;;;;;11.70;3.15;;;3.30;99.90;;;;;;4995999;28;20484;-49
2021/12/12 03:48:27;;;;;;;9.57;3.25;;;3.30;99.90;;;;;;4994987;28;20034;-50
2021/12/12 03:50:55;;;;;;;;;;;3.30;99.90;;;;;;4996336;28;20099;-51
2021/12/12 03:53:20;;;;;;;8.32;2.58;;;3.30;99.90;;;;;;4995478;28;19905;-50
2021/12/12 03:55:51;;;;;;;11.05;3.00;;;3.20;99.90;;;;;;4996323;28;20020;-49
2021/12/12 03:58:16;;;;;;;12.70;3.13;;;3.30;99.90;;;;;;4995593;28;20477;-52
2021/12/12 04:00:48;;;;;;;10.77;3.08;;;3.30;99.90;;;;;;4995984;28;20097;-49
2021/12/12 04:03:14;;;;;;;7.22;3.42;;;3.20;99.90;;;;;;4996585;28;20018;-47
2021/12/12 04:05:59;;;;;;;13.15;2.90;;;3.30;99.90;;;;;;4994401;28;20026;-47
2021/12/12 04:08:35;;;;;;;10.68;4.45;;;3.30;99.90;;;;;;4995833;28;20177;-46
2021/12/12 04:11:03;;;;;;;7.78;2.85;;;3.40;99.90;;;;;;4995595;28;20519;-47
2021/12/12 04:13:29;;;;;;;9.30;3.55;;;3.50;99.90;;;;;;4994237;28;20033;-46
2021/12/12 04:15:56;;;;;;;9.45;3.03;;;3.50;99.90;;;;;;4995374;28;20470;-49
2021/12/12 04:18:25;;;;;;;11.75;3.33;;;3.40;99.90;;;;;;4993997;28;20029;-47
2021/12/12 04:20:51;;;;;;;8.13;3.88;;;3.50;99.90;;;;;;4995608;28;20473;-49
2021/12/12 04:23:20;;;;;;;11.90;4.10;;;3.40;99.90;;;;;;4995609;28;20106;-46
2021/12/12 04:25:46;;;;;;;14.75;4.10;;;3.20;99.90;;;;;;4995254;28;20078;-49
2021/12/12 04:28:11;;;;;;;10.57;5.35;;;3.20;99.90;;;;;;4994729;28;20489;-47
2021/12/12 04:30:38;;;;;;;12.88;4.03;;;3.00;99.90;;;;;;4995448;28;20026;-46
2021/12/12 04:33:04;;;;;;;9.02;4.95;;;3.00;99.90;;;;;;4994836;28;20512;-47
2021/12/12 04:35:30;;;;;;;9.00;5.22;;;2.90;99.90;;;;;;4993743;28;20026;-47
2021/12/12 04:37:58;;;;;;;8.77;4.97;;;2.90;99.90;;;;;;5021251;22;20022;-50
2021/12/12 04:40:27;;;;;;;14.57;4.97;;;2.90;99.90;;;;;;5012983;28;20053;-50
2021/12/12 04:42:55;;;;;;;6.60;3.75;;;3.00;99.90;;;;;;5014621;28;20018;-50
2021/12/12 04:46:04;;;;;;;11.35;4.45;;;3.00;99.90;;;;;;5013580;28;20022;-49
2021/12/12 04:51:30;;;;;;;11.65;4.07;;;3.20;99.90;;;;;;5014702;28;20057;-49
2021/12/12 04:54:07;;;;;;;13.30;4.35;;;3.10;99.90;;;;;;5014449;28;20025;-50
2021/12/12 04:57:05;;;;;;;15.90;4.60;;;3.20;99.90;;;;;;5014672;28;20067;-52
2021/12/12 04:59:53;;;;;;;8.95;3.83;;;3.20;99.90;;;;;;5014291;28;20049;-50
2021/12/12 05:02:38;;;;;;;14.65;4.82;;;3.40;99.90;;;;;;5014470;28;20033;-49
2021/12/12 05:05:18;;;;;;;8.52;4.00;;;3.60;99.90;;;;;;5012921;28;20022;-49
2021/12/12 05:08:04;;;;;;;12.15;4.38;;;3.60;99.90;;;;;;5012953;28;20029;-48
2021/12/12 05:10:36;;;;;;;11.88;4.22;;;3.60;99.90;;;;;;5029308;28;20089;-49
2021/12/12 05:13:06;;;;;;;9.52;4.63;;;3.60;99.90;;;;;;5014353;28;20025;-50
2021/12/12 05:15:37;;;;;;;10.57;4.70;;;3.50;99.90;;;;;;5014241;28;20029;-49
2021/12/12 05:18:12;;;;;;;10.40;4.37;;;3.40;99.90;;;;;;5014284;28;20029;-49
2021/12/12 05:20:43;;;;;;;12.85;5.18;;;3.50;99.90;;;;;;5012592;28;20311;-48
2021/12/12 05:23:13;;;;;;;15.30;4.90;;;3.50;99.90;;;;;;5013946;28;20526;-48
2021/12/12 05:26:00;;;;;;;15.60;4.72;;;3.60;99.90;;;;;;5012661;28;20053;-50
2021/12/12 05:28:42;;;;;;;10.57;4.20;;;3.60;99.90;;;;;;5013952;28;20030;-48
2021/12/12 05:31:09;;;;;;;11.15;4.53;;;3.60;99.90;;;;;;5013375;28;20026;-49
2021/12/12 05:33:36;;;;;;;12.77;4.75;;;3.90;99.90;;;;;;5012799;28;20099;-48
2021/12/12 05:36:02;;;;;;;14.98;5.35;;;3.70;99.90;;;;;;5013710;28;20076;-51
2021/12/12 05:38:29;;;;;;;15.15;6.10;;;3.50;99.90;;;;;;5012308;28;20069;-49
2021/12/12 05:40:56;;;;;;;14.30;5.15;;;3.50;99.90;;;;;;5013016;28;20112;-50
2021/12/12 05:43:22;;;;;;;9.70;4.80;;;3.40;99.90;;;;;;5012731;28;20026;-50
2021/12/12 05:45:50;;;;;;;10.75;5.10;;;3.50;99.90;;;;;;5012643;28;20022;-51
2021/12/12 05:48:16;;;;;;;14.43;6.15;;;3.50;99.90;;;;;;5012303;28;20025;-51
2021/12/12 05:50:44;;;;;;;15.95;6.25;;;3.60;99.90;;;;;;5012300;28;20396;-53
2021/12/12 05:53:11;;;;;;;14.55;5.35;;;3.70;99.90;;;;;;5013557;28;20052;-50
2021/12/12 05:55:38;;;;;;;22.08;6.10;;;3.60;99.90;;;;;;5013527;28;20072;-51
2021/12/12 05:58:07;;;;;;;17.23;5.05;;;3.50;99.90;;;;;;5013411;28;20033;-49
2021/12/12 06:00:40;;;;;;;16.55;5.70;;;3.50;99.90;;;;;;5012360;28;20112;-49
2021/12/12 06:03:10;;;;;;;13.55;5.15;;;3.50;99.90;;;;;;5013442;28;20018;-54
2021/12/12 06:05:37;;;;;;;16.60;5.22;;;3.60;99.90;;;;;;5012180;28;20093;-48
2021/12/12 06:08:05;;;;;;;16.25;5.80;;;3.50;99.90;;;;;;5013157;28;20108;-53
2021/12/12 06:10:32;;;;;;;13.80;6.20;;;3.50;99.90;;;;;;5012077;28;20037;-49
2021/12/12 06:12:58;;;;;;;15.80;5.50;;;3.60;99.90;;;;;;5012051;28;20022;-51
2021/12/12 06:15:27;;;;;;;20.17;6.15;;;3.40;99.90;;;;;;5013509;28;20029;-49
2021/12/12 06:17:53;;;;;;;17.60;5.85;;;3.50;99.90;;;;;;5013260;28;20117;-50
2021/12/12 06:20:20;;;;;;;14.25;5.95;;;3.50;99.90;;;;;;5011839;28;20030;-49
2021/12/12 06:22:47;;;;;;;23.13;8.05;;;3.50;99.90;;;;;;5013351;28;20022;-50
2021/12/12 06:25:13;;;;;;;19.65;6.05;;;3.60;99.90;;;;;;5013542;28;20033;-55
2021/12/12 06:27:39;;;;;;;16.67;6.28;;;3.60;99.90;;;;;;5013434;28;20084;-50
2021/12/12 06:30:13;;;;;;;15.40;6.45;;;3.50;99.90;;;;;;5013332;28;20026;-50
2021/12/12 06:32:40;;;;;;;13.52;6.47;;;3.40;99.90;;;;;;5013557;28;20072;-50
2021/12/12 06:35:07;;;;;;;17.35;6.25;;;3.40;99.90;;;;;;5013397;28;20033;-49
2021/12/12 06:37:33;;;;;;;20.25;6.78;;;3.40;99.90;;;;;;5011828;28;20033;-51
2021/12/12 06:39:59;;;;;;;21.27;6.93;;;3.50;99.90;;;;;;5012252;28;20045;-53
2021/12/12 06:42:26;;;;;;;16.85;7.50;;;3.60;99.90;;;;;;5013393;28;20018;-52
2021/12/12 06:44:52;;;;;;;9.05;4.60;;;3.60;99.90;;;;;;5011836;28;20033;-53
2021/12/12 06:47:18;;;;;;;14.50;6.22;;;3.70;99.90;;;;;;5011879;28;20022;-51
2021/12/12 06:49:46;;;;;;;21.45;5.85;;;3.90;99.90;;;;;;5013016;28;20038;-49
2021/12/12 06:52:13;;;;;;;19.38;6.40;;;3.90;99.90;;;;;;5011749;28;20113;-50
2021/12/12 06:54:40;;;;;;;19.75;6.00;;;3.80;99.90;;;;;;5011785;28;20124;-50
2021/12/12 06:57:12;;;;;;;13.85;5.80;;;3.80;99.90;;;;;;5012884;28;20030;-51
2021/12/12 06:59:40;;;;;;;13.80;5.22;;;3.60;99.90;;;;;;5016930;28;20483;-53
2021/12/12 07:02:08;;;;;;;14.00;6.10;;;3.70;99.90;;;;;;5016619;28;20024;-50
2021/12/12 07:04:36;;;;;;;16.02;5.55;;;3.80;99.90;;;;;;5016681;28;20026;-48
2021/12/12 07:07:06;;;;;;;20.58;6.18;;;3.90;99.90;;;;;;5016439;28;20101;-48
2021/12/12 07:09:35;;;;;;;13.40;5.15;;;3.80;99.90;;;;;;5015066;28;20033;-48
2021/12/12 07:12:06;;;;;;;12.50;6.03;;;3.80;99.90;;;;;;5014990;28;20113;-52
2021/12/12 07:14:33;;;;;;;18.48;5.13;;;3.80;99.90;;;;;;5016274;28;20022;-49
2021/12/12 07:17:00;;;;;;;14.13;5.47;;;3.80;99.90;;;;;;5015233;28;20025;-50
2021/12/12 07:19:26;;;;;;;20.70;5.75;;;3.90;99.90;;;;;;5015047;28;20471;-51
2021/12/12 07:21:51;;;;;;;13.90;5.10;;;3.90;99.90;;;;;;5015689;28;20030;-53
2021/12/12 07:24:19;;;;;;;14.30;5.43;;;3.90;99.90;;;;;;5014753;28;20076;-49
2021/12/12 07:26:45;;;;;;;15.75;5.15;;;3.70;99.90;;;;;;5014714;28;20018;-49
2021/12/12 07:29:17;;;;;;;14.90;5.03;;;3.60;99.90;;;;;;5016196;28;20030;-49
2021/12/12 07:31:43;;;;;;;16.88;4.80;;;3.60;99.90;;;;;;5014957;28;20044;-51
2021/12/12 07:34:12;;;;;;;12.85;4.93;;;3.60;99.90;;;;;;5014582;28;20078;-48
2021/12/12 07:36:43;;;;;;;14.63;5.35;;;3.50;99.90;;;;;;5015827;28;20022;-48
2021/12/12 07:39:12;;;;;;;14.55;5.85;;;3.50;99.90;;;;;;5015627;28;20431;-49
2021/12/12 07:41:41;;;;;;;6.68;4.15;;;3.60;99.90;;;;;;5015874;28;20101;-52
2021/12/12 07:44:09;;;;;;;8.98;5.07;;;3.70;99.90;;;;;;5014740;28;20093;-50
2021/12/12 07:46:36;;;;;;;13.32;5.03;;;3.60;99.90;;;;;;5015545;28;20025;-49
2021/12/12 07:49:03;;;;;;;10.80;4.50;;;3.70;99.90;;;;;;5015508;28;20435;-53
2021/12/12 07:51:31;;;;;;;11.75;4.60;;;3.60;99.90;;;;;;5014233;28;20026;-52
2021/12/12 07:53:59;;;;;;;10.10;4.80;;;3.70;99.90;;;;;;5015354;28;20045;-50
2021/12/12 07:56:30;;;;;;;12.45;5.40;;;3.60;99.90;;;;;;5015561;28;20101;-50
2021/12/12 07:58:58;;;;;;;17.52;4.95;;;3.50;99.90;;;;;;5015198;28;20049;-52
2021/12/12 08:01:25;;;;;;;13.20;5.28;;;3.70;99.90;;;;;;5014087;28;20018;-49
2021/12/12 08:03:53;;;;;;;16.90;5.30;;;3.50;99.90;;;;;;5014315;28;20048;-51
2021/12/12 08:06:20;;;;;;;14.00;6.15;;;3.50;99.90;;;;;;5013908;28;20121;-50
2021/12/12 08:08:47;;;;;;;14.88;6.00;;;3.40;99.90;;;;;;5013993;28;20049;-48
2021/12/12 08:11:18;;;;;;;14.45;5.65;;;3.50;99.90;;;;;;5013866;28;20112;-53
2021/12/12 08:13:44;;;;;;;12.80;5.00;;;3.60;99.90;;;;;;5015088;28;20034;-49
2021/12/12 08:16:10;;;;;;;15.07;5.05;;;3.50;99.90;;;;;;5013850;28;20044;-51
2021/12/12 08:18:38;;;;;;;11.15;5.38;;;3.60;99.90;;;;;;5014810;28;20492;-50
2021/12/12 08:21:06;;;;;;;11.60;5.82;;;3.50;99.90;;;;;;5014028;28;20022;-50
2021/12/12 08:23:32;;;;;;;12.13;4.75;;;3.60;99.90;;;;;;5013679;28;20479;-51
2021/12/12 08:25:58;;;;;;;13.38;4.68;;;3.60;99.90;;;;;;5013569;28;20030;-49
2021/12/12 08:28:24;;;;;;;8.25;4.85;;;3.60;99.90;;;;;;5013608;28;20123;-50
2021/12/12 08:30:52;;;;;;;11.27;5.07;;;3.50;99.90;;;;;;5014662;28;20037;-57
2021/12/12 08:33:18;;;;;;;6.50;4.03;;;3.50;99.90;;;;;;5013399;28;20030;-50
2021/12/12 08:35:44;;;;;;;15.98;5.00;;;3.50;99.90;;;;;;5014971;28;20026;-51
2021/12/12 08:38:11;;;;;;;15.85;4.40;;;3.50;99.90;;;;;;5014665;28;20054;-50
2021/12/12 08:40:46;;;;;;;8.65;4.53;;;3.40;99.90;;;;;;5014237;28;20022;-52
2021/12/12 08:43:13;;;;;;;16.77;4.53;;;3.50;99.90;;;;;;5014920;28;20025;-55
2021/12/12 08:45:46;;;;;;;10.48;4.05;;;3.60;99.90;;;;;;5013357;28;20100;-52
2021/12/12 08:48:14;;;;;;;11.02;4.40;;;3.60;99.90;;;;;;5014442;28;20026;-51
2021/12/12 08:50:41;;;;;;;10.23;3.92;;;3.70;99.90;;;;;;5014445;28;20021;-52
2021/12/12 08:53:08;;;;;;;11.65;4.05;;;3.80;99.90;;;;;;5014419;28;20037;-54
2021/12/12 08:55:37;;;;;;;15.18;4.30;;;3.70;99.90;;;;;;5014335;28;20068;-51
2021/12/12 08:58:14;;;;;;;13.52;3.90;;;3.60;99.90;;;;;;5013291;28;20036;-53
2021/12/12 09:00:57;;;;;;;9.23;4.47;;;3.70;99.90;;;;;;5014175;28;20480;-52
2021/12/12 09:03:30;;;;;;;6.68;3.20;;;3.70;99.90;;;;;;5014275;28;20014;-50
2021/12/12 09:05:56;;;;;;;12.23;3.67;;;3.90;99.90;;;;;;5013205;28;20388;-49
2021/12/12 09:08:40;;;;;;;6.20;3.03;;;3.90;99.90;;;;;;5014119;28;20033;-51
2021/12/12 09:11:16;;;;;;;7.15;3.78;;;4.30;99.90;;;;;;5012806;28;20022;-54
2021/12/12 09:13:54;;;;;;;9.00;3.30;;;4.30;99.90;;;;;;5014750;28;20423;-50
2021/12/12 09:16:47;;;;;;;15.02;3.42;;;4.40;99.90;;;;;;5012876;28;20037;-50
2021/12/12 09:19:25;;;;;;;6.43;3.50;;;4.70;99.90;;;;;;5014048;28;20072;-52
2021/12/12 09:22:01;;;;;;;7.35;3.75;;;4.90;99.90;;;;;;5014393;28;20069;-51
2021/12/12 09:24:45;;;;;;;7.32;3.00;;;5.10;99.90;;;;;;5012880;28;20026;-50
2021/12/12 09:27:22;;;;;;;9.43;2.90;;;5.10;99.90;;;;;;5013121;28;20033;-52
2021/12/12 09:29:59;;;;;;;7.55;2.75;;;5.10;99.90;;;;;;5012650;28;20111;-50
2021/12/12 09:32:30;;;;;;;9.25;2.92;;;5.20;99.90;;;;;;5013243;28;20084;-52
2021/12/12 09:35:08;;;;;;;5.78;3.38;;;5.30;99.90;;;;;;5012639;28;20092;-52
2021/12/12 09:37:45;;;;;;;5.60;2.90;;;5.20;99.90;;;;;;5012776;28;20033;-50
2021/12/12 09:40:16;;;;;;;8.48;3.38;;;5.20;99.90;;;;;;5012223;28;20029;-50
2021/12/12 09:43:17;;;;;;;7.78;2.92;;;5.30;99.90;;;;;;5014042;28;20030;-49
2021/12/12 09:46:07;;;;;;;7.83;2.73;;;5.30;99.90;;;;;;5012084;28;20037;-53
2021/12/12 09:51:45;;;;;;;7.53;2.83;;;5.20;99.90;;;;;;5013958;28;20029;-49
2021/12/12 09:54:24;;;;;;;8.65;2.92;;;4.90;99.90;;;;;;5013257;28;20048;-50
2021/12/12 09:57:05;;;;;;;7.50;3.30;;;5.00;99.90;;;;;;5012373;28;20037;-50
2021/12/12 09:59:58;;;;;;;8.45;3.40;;;4.80;99.90;;;;;;5013434;28;20472;-54
2021/12/12 10:02:42;;;;;;;12.00;2.65;;;4.60;99.90;;;;;;5012752;28;20041;-55
2021/12/12 10:05:23;;;;;;;13.10;3.22;;;4.60;99.90;;;;;;5012279;28;20030;-55
2021/12/12 10:08:10;;;;;;;5.40;2.60;;;4.70;99.90;;;;;;5013405;28;20045;-54
2021/12/12 10:10:59;;;;;;;5.95;3.03;;;4.80;99.90;;;;;;5012165;28;20032;-51
2021/12/12 10:13:42;;;;;;;6.43;3.30;;;5.00;99.90;;;;;;5025274;28;20033;-51
2021/12/12 10:16:28;;;;;;;7.38;3.17;;;5.10;99.90;;;;;;5013623;28;20029;-55
2021/12/12 10:19:01;;;;;;;15.52;4.47;;;5.20;99.90;;;;;;5013195;28;20030;-56
2021/12/12 10:21:38;;;;;;;8.98;3.63;;;5.10;99.90;;;;;;5013904;28;20034;-50
2021/12/12 10:24:30;;;;;;;11.85;3.97;;;5.20;99.90;;;;;;5013271;28;20088;-52
2021/12/12 10:27:22;;;;;;;8.48;4.03;;;5.10;99.90;;;;;;5011996;28;20022;-51
2021/12/12 10:30:11;;;;;;;8.25;3.70;;;5.10;99.90;;;;;;5011959;28;20091;-53
2021/12/12 10:32:47;;;;;;;8.23;3.45;;;5.00;99.90;;;;;;5013919;28;20084;-54
2021/12/12 10:35:23;;;;;;;9.90;3.40;;;5.00;99.90;;;;;;5015741;28;20033;-52
2021/12/12 10:38:01;;;;;;;10.43;2.97;;;5.10;99.90;;;;;;5015621;28;20041;-53
2021/12/12 10:40:36;;;;;;;6.72;2.30;;;5.40;99.90;;;;;;5015811;28;20525;-55
2021/12/12 10:43:06;;;;;;;5.57;2.40;;;5.50;99.90;;;;;;5017106;28;20096;-55
2021/12/12 10:45:58;;;;;;;8.18;2.80;;;5.60;99.90;;;;;;5016463;28;20113;-55
2021/12/12 10:48:32;;;;;;;5.13;2.95;;;5.60;99.90;;;;;;5015315;28;20018;-53
2021/12/12 10:51:01;;;;;;;5.25;2.50;;;5.70;99.90;;;;;;5016436;28;20030;-51
2021/12/12 10:53:43;;;;;;;11.13;3.00;;;5.70;99.90;;;;;;5015245;28;20026;-52
2021/12/12 10:56:18;;;;;;;4.57;3.15;;;5.60;99.90;;;;;;5015256;28;20033;-56
2021/12/12 10:58:52;;;;;;;8.25;3.50;;;5.50;99.90;;;;;;5016269;28;20080;-52
2021/12/12 11:01:30;;;;;;;7.80;3.38;;;5.60;99.90;;;;;;5016389;28;20026;-55
2021/12/12 11:04:10;;;;;;;10.35;4.57;;;5.40;99.90;;;;;;5016729;28;20022;-54
2021/12/12 11:06:40;;;;;;;11.18;3.63;;;5.20;99.90;;;;;;5015135;28;20077;-54
2021/12/12 11:09:05;;;;;;;12.00;4.22;;;4.90;99.90;;;;;;5014974;28;20026;-50
2021/12/12 11:11:51;;;;;;;12.52;4.97;;;4.80;99.90;;;;;;5016203;28;20030;-48
2021/12/12 11:14:35;;;;;;;16.73;5.18;;;4.70;99.90;;;;;;5016512;28;20491;-51
2021/12/12 11:17:11;;;;;;;8.05;4.70;;;4.50;99.90;;;;;;5016043;28;20029;-51
2021/12/12 11:20:13;;;;;;;12.13;6.30;;;4.50;99.90;;;;;;5015877;28;20021;-53
2021/12/12 11:22:41;;;;;;;10.93;5.20;;;4.40;99.90;;;;;;5015756;28;20050;-52
2021/12/12 11:25:32;;;;;;;10.50;5.25;;;4.40;99.90;;;;;;5015901;28;20022;-52
2021/12/12 11:28:03;;;;;;;10.63;5.18;;;4.40;99.90;;;;;;5014490;28;20044;-51
2021/12/12 11:30:43;;;;;;;12.35;4.93;;;4.40;99.90;;;;;;5015964;28;20085;-48
2021/12/12 11:33:12;;;;;;;11.30;5.53;;;4.50;99.90;;;;;;5031167;28;20506;-49
2021/12/12 11:35:41;;;;;;;18.38;7.20;;;4.50;99.90;;;;;;5015915;28;20037;-48
2021/12/12 11:38:30;;;;;;;9.57;4.13;;;4.60;99.90;;;;;;5015672;28;20049;-52
2021/12/12 11:41:33;;;;;;;9.02;4.28;;;4.70;99.90;;;;;;5014445;28;20113;-51
2021/12/12 11:44:19;;;;;;;10.35;4.70;;;4.80;99.90;;;;;;5010947;28;20087;-49
2021/12/12 11:47:14;;;;;;;15.27;4.30;;;4.90;99.90;;;;;;5014412;28;20507;-50
2021/12/12 11:49:56;;;;;;;9.88;4.40;;;5.00;99.90;;;;;;5015524;28;20030;-50
2021/12/12 11:52:53;;;;;;;9.00;4.47;;;5.10;99.90;;;;;;5015564;28;20029;-49
2021/12/12 11:55:39;;;;;;;12.32;5.68;;;5.10;99.90;;;;;;5012359;28;20092;-52
2021/12/12 11:58:19;;;;;;;10.15;4.57;;;5.00;99.90;;;;;;5015344;28;20033;-47
2021/12/12 12:01:08;;;;;;;11.00;3.95;;;4.90;99.90;;;;;;5014103;28;20026;-52
2021/12/12 12:04:01;;;;;;;7.40;4.35;;;5.00;99.90;;;;;;5014623;28;20033;-49
2021/12/12 12:07:07;;;;;;;5.90;3.15;;;4.90;99.90;;;;;;5015365;28;20018;-51
2021/12/12 12:09:51;;;;;;;13.38;4.40;;;4.80;99.90;;;;;;5015285;28;20076;-49
2021/12/12 12:13:01;;;;;;;7.35;3.28;;;4.80;99.90;;;;;;5014258;28;20026;-49
2021/12/12 12:15:46;;;;;;;6.45;4.15;;;4.90;99.90;;;;;;5015130;28;20022;-53
2021/12/12 12:18:24;;;;;;;11.65;4.97;;;5.10;99.90;;;;;;5014994;28;20025;-52
2021/12/12 12:21:11;;;;;;;11.73;4.85;;;5.10;99.90;;;;;;5014972;28;20545;-48
2021/12/12 12:24:17;;;;;;;15.18;3.88;;;5.10;99.90;;;;;;5013763;28;20072;-48
2021/12/12 12:27:04;;;;;;;8.00;3.97;;;5.30;99.90;;;;;;5013589;28;20030;-48
2021/12/12 12:29:30;;;;;;;7.40;3.75;;;5.20;99.90;;;;;;5014790;28;20022;-50
2021/12/12 12:32:38;;;;;;;8.15;3.97;;;5.30;99.90;;;;;;5013576;28;20022;-48
2021/12/12 12:35:22;;;;;;;8.60;3.45;;;5.30;99.90;;;;;;5004228;28;20484;-51
2021/12/12 12:38:25;;;;;;;12.07;4.05;;;5.30;99.90;;;;;;5014452;28;20084;-48
2021/12/12 12:41:09;;;;;;;9.40;3.65;;;5.30;99.90;;;;;;5014848;28;20026;-48
2021/12/12 12:44:12;;;;;;;12.80;5.15;;;5.20;99.90;;;;;;5013519;28;20045;-48
2021/12/12 12:47:10;;;;;;;10.05;4.28;;;5.20;99.90;;;;;;5013196;28;20018;-50
2021/12/12 12:50:13;;;;;;;9.15;4.32;;;5.30;99.90;;;;;;5012964;28;20030;-48
2021/12/12 12:52:57;;;;;;;13.20;4.22;;;5.30;99.90;;;;;;5014957;28;20026;-51
2021/12/12 12:56:05;;;;;;;16.23;5.07;;;5.40;99.90;;;;;;5013850;28;20026;-51
2021/12/12 12:58:58;;;;;;;8.05;4.65;;;5.30;99.90;;;;;;5013067;28;20045;-48
2021/12/12 13:01:43;;;;;;;16.05;5.55;;;5.40;99.90;;;;;;5013025;28;20029;-48
2021/12/12 13:04:30;;;;;;;10.13;5.50;;;5.30;99.90;;;;;;5029932;28;20058;-51
2021/12/12 13:07:18;;;;;;;14.85;5.97;;;5.40;99.90;;;;;;5012882;28;20084;-52
2021/12/12 13:10:07;;;;;;;12.02;5.70;;;5.30;99.90;;;;;;5013076;28;20476;-51
2021/12/12 13:12:57;;;;;;;19.17;5.53;;;5.20;99.90;;;;;;5014119;28;20022;-49
2021/12/12 13:15:32;;;;;;;13.07;5.93;;;5.20;99.90;;;;;;5012780;28;20531;-50
2021/12/12 13:18:16;;;;;;;14.63;5.68;;;5.10;99.90;;;;;;5013965;28;20092;-49
2021/12/12 13:21:01;;;;;;;15.27;5.65;;;5.10;99.90;;;;;;5012589;28;20026;-53
2021/12/12 13:23:53;;;;;;;10.57;4.88;;;5.10;99.90;;;;;;5012918;28;20018;-48
2021/12/12 13:26:32;;;;;;;;;;;5.20;99.90;;;;;;5029549;28;20020;-50
2021/12/12 13:29:36;;;;;;;14.35;5.25;;;5.30;99.90;;;;;;5013346;28;20003;-49
2021/12/12 13:32:14;;;;;;;9.27;5.07;;;5.30;99.90;;;;;;5012610;28;20049;-48
2021/12/12 13:35:09;;;;;;;10.43;5.18;;;5.20;99.90;;;;;;5013428;28;20026;-49
2021/12/12 13:37:52;;;;;;;11.15;5.03;;;5.30;99.90;;;;;;5013317;28;20037;-52
2021/12/12 13:40:35;;;;;;;12.50;5.00;;;5.20;99.90;;;;;;5013717;28;20034;-48
2021/12/12 13:43:25;;;;;;;11.93;4.75;;;5.20;99.90;;;;;;5013720;28;20053;-48
2021/12/12 13:46:12;;;;;;;10.73;3.88;;;5.30;99.90;;;;;;5012580;28;20080;-49
2021/12/12 13:48:43;;;;;;;12.77;4.57;;;5.40;99.90;;;;;;5013522;28;20056;-48
2021/12/12 13:51:22;;;;;;;;;;;5.30;99.90;;;;;;5014222;28;20036;-48